Hauptseite
METAR-TAF:

METAR-TAF

Flughäfen :

Westerland, Deutschland

Flughafen Sylt

Breite: 54-55N, Länge: 008-21E, Höhe: 16 m

Beobachtung

Neuester Wetterbericht von vor 20 Minuten, um 11:20 UTC
Wind 12 kt aus Nordwest
Temperatur 8°C
Luftfeuchtigkeit 87%
Luftdruck 1031 hPa
Sichtweite 10 km oder mehr
Aufgelockert bewölkt in der Höhe von 1800 ft

METAR: EDXW 251120Z 31012KT 9999 SCT018 08/06 Q1031

Zeit: 12:40 (11:40 UTC)

Prognose

Neuester Wetterbericht von vor 40 Minuten, um 11:00 UTC
Gültige Prognose vom 25 um 12 UTC bis 25 um 18 UTC
Wind 12 kt aus Nordwest
Sichtweite 10 km oder mehr
Leicht bewölkt in der Höhe von 2000 ft
Wahrscheinlichkeit 30% :
Zeitweise
vom 25 um 12 UTC bis 25 um 15 UTC
Durchbrochene Bewölkung in der Höhe von 1200 ft

TAF: EDXW 251100Z 2512/2518 31012KT 9999 FEW020 PROB30 TEMPO 2512/2515 BKN012

Wetterbeobachtungen und Prognosen von mehr als 4000 Flughäfen (METAR und TAF Bericht).

Die verfügbaren Stationen werden durch gelbe und rote Markierungen auf der Karte dargestellt.

Führen Sie die Maus auf sie, um den Namen der Station zu sehen.

Darauf klicken, um die Beobachtung von Wetterbeobachtungen und Prognosen zu sehen.

Um die Karte zu ändern : klicken Sie auf den grünen Tasten mit einem schwarzen Kreuz Zum Vergrößern, auf den grünen Button mit einem Gedankenstrich zu verkleinern, oder auf die grünen Pfeile für benachbarte Karten.


METAR-TAF: